Time;durP1;ratioP1;P1;durP2;ratioP2;P2;SDS_P1;SDS_P2;PMS_P1;PMS_P2;Temp;Humidity;BMP_temperature;BMP_pressure;BME280_temperature;BME280_humidity;BME280_pressure;Samples;Min_cycle;Max_cycle;Signal;HPM_P1;HPM_P2
2023/07/21 00:02:06;;;;;;;12.82;2.30;;;;;;;18.00;93.40;100364.78;5081179;28;20163;-73
2023/07/21 00:04:31;;;;;;;11.30;2.88;;;;;;;18.03;93.20;100361.56;5092913;28;20114;-73
2023/07/21 00:06:57;;;;;;;9.50;1.70;;;;;;;18.02;93.15;100368.09;5125231;28;20032;-73
2023/07/21 00:09:22;;;;;;;10.00;1.90;;;;;;;18.06;92.96;100360.22;5095277;28;20055;-73
2023/07/21 00:11:48;;;;;;;14.52;2.63;;;;;;;17.93;92.22;100341.59;5091144;28;20108;-73
2023/07/21 00:14:13;;;;;;;8.35;1.70;;;;;;;17.82;93.41;100344.22;5090460;28;20050;-73
2023/07/21 00:16:39;;;;;;;8.07;1.92;;;;;;;18.06;92.67;100360.22;5121891;28;20031;-73
2023/07/21 00:19:06;;;;;;;15.85;2.45;;;;;;;17.94;93.07;100354.13;5115700;28;20048;-73
2023/07/21 00:21:32;;;;;;;11.57;2.00;;;;;;;17.97;92.48;100345.44;5075220;28;20071;-73
2023/07/21 00:23:58;;;;;;;12.02;2.03;;;;;;;17.98;92.92;100358.81;5091666;28;20031;-73
2023/07/21 00:26:24;;;;;;;13.43;2.30;;;;;;;17.99;93.00;100354.19;5090602;28;20024;-73
2023/07/21 00:28:50;;;;;;;17.15;2.85;;;;;;;18.04;92.62;100354.19;5091544;28;20435;-73
2023/07/21 00:31:15;;;;;;;10.75;2.08;;;;;;;17.92;93.19;100345.41;5090357;28;20032;-73
2023/07/21 00:33:42;;;;;;;14.20;2.42;;;;;;;17.82;93.03;100332.53;5092689;28;20127;-73
2023/07/21 00:36:08;;;;;;;11.88;2.13;;;;;;;18.00;92.86;100353.91;5114131;28;20032;-73
2023/07/21 00:38:34;;;;;;;10.00;2.28;;;;;;;17.92;93.46;100356.28;5089259;28;20039;-73
2023/07/21 00:40:59;;;;;;;12.65;2.08;;;;;;;17.88;93.68;100353.28;5089947;28;20032;-73
2023/07/21 00:43:25;;;;;;;11.82;2.13;;;;;;;17.98;93.00;100345.19;5107059;28;20039;-73
2023/07/21 00:45:51;;;;;;;14.45;2.25;;;;;;;17.99;92.79;100346.81;5106776;28;20036;-73
2023/07/21 00:48:17;;;;;;;13.38;2.33;;;;;;;17.88;93.59;100355.16;5091782;28;20048;-73
2023/07/21 00:50:53;;;;;;;8.32;1.92;;;;;;;17.88;93.29;100341.53;5090104;28;20478;-73
2023/07/21 00:53:19;;;;;;;13.55;2.22;;;;;;;17.89;93.86;100346.75;5090146;28;20107;-73
2023/07/21 00:55:50;;;;;;;11.63;2.00;;;;;;;17.99;93.02;100348.72;5090325;28;20195;-73
2023/07/21 00:58:17;;;;;;;14.25;2.35;;;;;;;17.68;94.07;100315.78;5090259;28;20024;-73
2023/07/21 01:00:42;;;;;;;14.57;2.40;;;;;;;17.93;93.52;100347.84;5090037;28;20070;-73
2023/07/21 01:03:12;;;;;;;12.50;2.25;;;;;;;17.80;93.48;100323.78;5090169;28;20055;-73
2023/07/21 01:05:47;;;;;;;13.32;2.30;;;;;;;17.98;93.14;100353.34;5090132;28;20036;-73
2023/07/21 01:08:14;;;;;;;15.98;2.22;;;;;;;17.81;93.59;100334.44;5091827;28;20096;-73
2023/07/21 01:10:41;;;;;;;13.90;2.03;;;;;;;17.78;94.74;100351.28;5090093;28;20071;-73
2023/07/21 01:13:09;;;;;;;11.00;1.80;;;;;;;17.72;94.14;100338.66;5094091;28;20028;-73
2023/07/21 01:15:37;;;;;;;9.15;1.60;;;;;;;17.88;93.68;100344.25;5102402;28;20028;-73
2023/07/21 01:18:04;;;;;;;10.25;2.20;;;;;;;17.88;93.55;100345.09;5092998;28;20055;-73
2023/07/21 01:20:31;;;;;;;14.02;1.90;;;;;;;17.63;93.96;100312.19;5091997;28;20052;-73
2023/07/21 01:23:15;;;;;;;11.07;1.90;;;;;;;17.85;93.85;100345.63;5090909;28;20123;-73
2023/07/21 01:25:42;;;;;;;11.65;1.90;;;;;;;17.93;93.25;100338.88;5090160;28;20024;-73
2023/07/21 01:28:09;;;;;;;15.48;2.55;;;;;;;17.87;93.28;100339.91;5089373;28;20032;-73
2023/07/21 01:30:35;;;;;;;11.63;2.40;;;;;;;17.69;93.65;100314.69;5089891;28;20047;-73
2023/07/21 01:33:03;;;;;;;13.57;2.00;;;;;;;17.75;94.15;100321.81;5090249;28;20054;-73
2023/07/21 01:35:30;;;;;;;11.68;1.95;;;;;;;17.88;93.93;100341.53;5087882;28;20510;-73
2023/07/21 01:37:57;;;;;;;12.90;1.88;;;;;;;17.77;94.26;100336.00;5087384;28;20130;-73
2023/07/21 01:40:25;;;;;;;12.15;2.40;;;;;;;17.81;94.58;100344.47;5090680;28;20032;-73
2023/07/21 01:42:52;;;;;;;11.57;1.92;;;;;;;17.80;94.44;100334.69;5089727;28;20410;-73
2023/07/21 01:45:17;;;;;;;14.98;2.30;;;;;;;17.77;94.69;100337.91;5090668;28;20021;-73
2023/07/21 01:47:46;;;;;;;10.57;2.35;;;;;;;17.67;94.18;100313.31;5090392;28;20059;-73
2023/07/21 01:50:15;;;;;;;10.32;2.25;;;;;;;17.65;94.55;100310.00;5073435;28;20192;-73
2023/07/21 01:52:44;;;;;;;11.52;2.40;;;;;;;17.76;94.29;100326.22;5092915;28;20032;-73
2023/07/21 01:55:13;;;;;;;13.65;2.00;;;;;;;17.73;94.75;100328.59;5094276;28;20517;-73
2023/07/21 01:57:45;;;;;;;13.45;2.88;;;;;;;17.68;95.28;100325.81;5082974;28;20177;-73
2023/07/21 02:00:13;;;;;;;10.82;1.95;;;;;;;17.71;95.05;100334.28;5073182;28;20024;-73
2023/07/21 02:02:44;;;;;;;11.27;1.95;;;;;;;17.70;95.08;100324.47;5077163;28;20084;-73
2023/07/21 02:05:23;;;;;;;12.20;2.38;;;;;;;17.64;94.87;100313.81;5087753;28;20022;-73
2023/07/21 02:07:49;;;;;;;13.20;2.03;;;;;;;17.76;94.62;100322.63;5110105;28;20127;-73
2023/07/21 02:10:16;;;;;;;16.05;3.25;;;;;;;17.74;94.93;100332.94;5093331;28;20509;-72
2023/07/21 02:12:41;;;;;;;15.32;1.85;;;;;;;17.75;94.98;100327.28;5098177;28;20039;-73
2023/07/21 02:15:07;;;;;;;15.85;2.05;;;;;;;17.77;94.79;100322.41;5098674;28;20201;-73
2023/07/21 02:17:33;;;;;;;16.95;2.25;;;;;;;17.83;94.89;100317.84;5094727;28;20032;-72
2023/07/21 02:19:59;;;;;;;14.07;2.03;;;;;;;17.77;95.01;100329.75;5093385;28;20251;-73
2023/07/21 02:22:24;;;;;;;11.98;2.50;;;;;;;17.74;95.41;100319.34;5087433;28;20028;-73
2023/07/21 02:24:50;;;;;;;15.07;2.28;;;;;;;17.71;95.12;100322.56;5074099;28;20039;-73
2023/07/21 02:27:15;;;;;;;13.13;2.20;;;;;;;17.76;94.89;100334.38;5073136;28;20556;-72
2023/07/21 02:29:41;;;;;;;10.98;1.92;;;;;;;17.69;94.63;100336.47;5073112;28;20475;-72
2023/07/21 02:32:07;;;;;;;10.18;1.83;;;;;;;17.65;94.06;100343.50;5072311;28;20032;-73
2023/07/21 02:34:32;;;;;;;11.95;2.10;;;;;;;17.75;92.81;100327.28;5073987;28;20517;-73
2023/07/21 02:36:57;;;;;;;9.38;1.70;;;;;;;17.79;92.35;100328.41;5055834;28;20440;-73
2023/07/21 02:39:25;;;;;;;10.70;2.00;;;;;;;17.74;92.28;100322.88;5056058;28;20032;-72
2023/07/21 02:41:50;;;;;;;16.92;2.55;;;;;;;17.82;92.40;100337.97;5074034;28;20039;-73
2023/07/21 02:44:15;;;;;;;12.52;2.45;;;;;;;17.86;92.09;100338.28;5075360;28;20111;-73
2023/07/21 02:46:41;;;;;;;14.65;2.10;;;;;;;17.88;91.64;100319.75;5072772;28;20036;-73
2023/07/21 02:49:07;;;;;;;13.80;2.03;;;;;;;17.81;91.56;100317.25;5055000;28;20063;-73
2023/07/21 02:51:33;;;;;;;10.60;1.67;;;;;;;17.80;91.44;100318.34;5072546;28;20414;-73
2023/07/21 02:53:58;;;;;;;14.90;2.15;;;;;;;17.76;91.74;100330.81;5072864;28;20435;-73
2023/07/21 02:56:24;;;;;;;11.02;1.67;;;;;;;17.76;91.07;100334.38;5072334;28;20364;-73
2023/07/21 02:58:49;;;;;;;8.43;1.50;;;;;;;17.76;90.68;100328.09;5073293;28;20502;-72
2023/07/21 03:01:15;;;;;;;9.90;2.17;;;;;;;17.68;89.99;100321.22;5072509;28;20111;-73
2023/07/21 03:03:41;;;;;;;13.30;1.70;;;;;;;17.82;89.70;100327.91;5039009;28;20039;-73
2023/07/21 03:06:07;;;;;;;8.75;1.75;;;;;;;17.87;89.41;100327.13;5071676;28;20020;-72
2023/07/21 03:08:33;;;;;;;15.05;1.95;;;;;;;17.79;89.89;100328.41;5071254;28;20028;-73
2023/07/21 03:10:59;;;;;;;12.07;2.30;;;;;;;17.77;90.32;100332.47;5082498;28;20033;-72
2023/07/21 03:13:25;;;;;;;9.98;2.08;;;;;;;17.73;90.47;100320.44;5078361;28;20025;-72
2023/07/21 03:15:54;;;;;;;9.75;1.50;;;;;;;17.77;89.73;100322.41;5072775;28;20027;-73
2023/07/21 03:18:20;;;;;;;6.28;1.50;;;;;;;17.71;89.81;100333.47;5073016;28;20040;-73
2023/07/21 03:20:45;;;;;;;5.35;1.40;;;;;;;17.75;89.13;100332.72;5071642;28;20028;-73
2023/07/21 03:23:12;;;;;;;8.68;1.90;;;;;;;17.67;88.62;100322.28;5054845;28;20119;-73
2023/07/21 03:25:46;;;;;;;7.25;1.55;;;;;;;17.81;88.10;100334.44;5071338;28;20660;-73
2023/07/21 03:28:11;;;;;;;8.05;1.58;;;;;;;17.84;87.78;100335.78;5071636;28;20028;-73
2023/07/21 03:30:39;;;;;;;10.38;1.67;;;;;;;17.74;87.23;100316.63;5072711;28;20044;-73
2023/07/21 03:33:04;;;;;;;6.85;1.48;;;;;;;17.86;86.86;100338.28;5073126;28;20033;-73
2023/07/21 03:35:30;;;;;;;9.60;1.30;;;;;;;17.90;86.25;100342.94;5071292;28;20514;-73
2023/07/21 03:37:57;;;;;;;11.48;1.80;;;;;;;18.01;85.86;100341.97;5054746;28;20529;-72
2023/07/21 03:40:22;;;;;;;8.40;1.23;;;;;;;18.10;85.36;100347.72;5072192;28;20020;-73
2023/07/21 03:42:48;;;;;;;7.57;1.70;;;;;;;18.40;83.66;100340.84;5054483;28;20491;-73
2023/07/21 03:45:13;;;;;;;11.27;1.95;;;;;;;18.43;83.40;100337.63;5054379;28;20040;-73
2023/07/21 03:47:39;;;;;;;8.98;1.65;;;;;;;18.30;83.83;100334.25;5054496;28;20048;-73
2023/07/21 03:50:05;;;;;;;8.95;1.60;;;;;;;18.32;84.26;100336.72;5079681;28;20038;-73
2023/07/21 03:52:30;;;;;;;11.13;1.70;;;;;;;18.13;84.32;100328.16;5092998;28;20052;-73
2023/07/21 03:54:56;;;;;;;8.85;2.00;;;;;;;18.17;83.86;100333.88;5092618;28;20419;-72
2023/07/21 03:57:22;;;;;;;7.40;1.40;;;;;;;18.18;83.03;100340.97;5091616;28;20184;-72
2023/07/21 03:59:48;;;;;;;8.25;1.83;;;;;;;18.25;81.56;100336.13;5091767;28;20114;-73
2023/07/21 04:02:16;;;;;;;7.18;1.40;;;;;;;18.18;80.74;100321.91;5075410;28;20479;-73
2023/07/21 04:04:42;;;;;;;7.57;1.50;;;;;;;18.57;78.87;100354.31;5070874;28;20570;-72
2023/07/21 04:07:07;;;;;;;7.10;1.33;;;;;;;18.89;76.86;100346.91;5080235;28;20082;-73
2023/07/21 04:09:33;;;;;;;4.32;1.20;;;;;;;18.85;76.36;100343.06;5052676;28;20041;-73
2023/07/21 04:11:59;;;;;;;11.50;1.77;;;;;;;19.13;74.73;100347.25;5039243;28;20074;-73
2023/07/21 04:14:25;;;;;;;5.75;1.27;;;;;;;19.20;73.68;100352.47;5057658;28;20056;-72
2023/07/21 04:16:51;;;;;;;5.55;1.30;;;;;;;19.20;72.82;100336.94;5094506;28;20122;-73
2023/07/21 04:19:17;;;;;;;7.72;1.10;;;;;;;19.16;72.06;100341.28;5098427;28;20036;-72
2023/07/21 04:21:43;;;;;;;7.22;1.05;;;;;;;19.05;71.34;100333.34;5091119;28;20073;-73
2023/07/21 04:24:10;;;;;;;5.68;1.40;;;;;;;19.05;70.92;100325.97;5073486;28;20028;-73
2023/07/21 04:26:36;;;;;;;4.15;1.02;;;;;;;19.13;71.23;100352.72;5073456;28;20054;-73
2023/07/21 04:29:01;;;;;;;10.25;1.50;;;;;;;18.89;72.18;100343.34;5091408;28;20533;-73
2023/07/21 04:31:28;;;;;;;11.02;1.98;;;;;;;19.07;72.01;100361.16;5091470;28;20047;-73
2023/07/21 04:33:55;;;;;;;12.65;2.10;;;;;;;19.02;72.16;100357.31;5095320;28;20064;-73
2023/07/21 04:36:21;;;;;;;9.95;1.75;;;;;;;18.80;73.18;100344.94;5090319;28;20028;-72
2023/07/21 04:38:47;;;;;;;7.35;1.30;;;;;;;18.69;73.75;100354.94;5092135;28;20069;-73
2023/07/21 04:41:13;;;;;;;8.32;1.73;;;;;;;18.40;74.14;100343.59;5081515;28;20420;-73
2023/07/21 04:43:38;;;;;;;4.95;1.00;;;;;;;18.46;73.95;100359.69;5091053;28;20028;-73
2023/07/21 04:46:03;;;;;;;6.13;1.27;;;;;;;18.94;70.44;100351.53;5090014;28;20525;-73
2023/07/21 04:48:29;;;;;;;6.60;1.20;;;;;;;19.02;69.96;100362.78;5091176;28;20056;-73
2023/07/21 04:50:56;;;;;;;5.25;1.00;;;;;;;19.46;67.34;100359.66;5089916;28;20035;-73
2023/07/21 04:53:22;;;;;;;4.68;1.02;;;;;;;19.23;67.31;100369.13;5090480;28;20474;-73
2023/07/21 04:55:48;;;;;;;8.38;1.30;;;;;;;19.61;65.09;100366.25;5090958;28;20031;-73
2023/07/21 04:58:14;;;;;;;6.55;1.30;;;;;;;19.79;63.96;100364.94;5090580;28;20028;-73
2023/07/21 05:00:39;;;;;;;6.78;1.30;;;;;;;20.02;62.73;100363.59;5084357;28;20078;-72
2023/07/21 05:03:04;;;;;;;5.65;1.33;;;;;;;20.22;62.02;100366.31;5074632;28;20131;-72
2023/07/21 05:05:33;;;;;;;7.15;1.00;;;;;;;21.20;59.55;100361.47;5091721;28;20151;-72
2023/07/21 05:08:01;;;;;;;10.10;1.45;;;;;;;20.92;59.73;100363.75;5095548;28;20471;-72
2023/07/21 05:10:27;;;;;;;9.18;1.35;;;;;;;21.13;58.72;100359.03;5085807;28;20051;-74
2023/07/21 05:12:53;;;;;;;7.55;1.40;;;;;;;21.02;58.39;100365.63;5085960;28;20059;-73
2023/07/21 05:15:18;;;;;;;11.65;1.73;;;;;;;21.47;57.18;100361.91;5087832;28;20093;-72
2023/07/21 05:17:44;;;;;;;10.57;1.50;;;;;;;21.22;57.75;100375.66;5089524;28;20503;-73
2023/07/21 05:20:11;;;;;;;5.93;1.17;;;;;;;21.37;56.92;100372.91;5089272;28;20059;-73
2023/07/21 05:22:38;;;;;;;5.18;1.42;;;;;;;20.87;57.69;100364.59;5089617;28;20119;-73
2023/07/21 05:25:07;;;;;;;5.85;1.30;;;;;;;21.32;56.79;100368.25;5065691;28;20031;-73
2023/07/21 05:27:32;;;;;;;5.82;1.38;;;;;;;21.44;56.26;100383.53;5094349;28;20074;-73
2023/07/21 05:29:59;;;;;;;5.95;1.27;;;;;;;21.51;55.29;100378.56;5094621;28;20024;-73
2023/07/21 05:32:24;;;;;;;7.07;1.30;;;;;;;21.23;55.49;100380.06;5094172;28;20103;-72
2023/07/21 05:34:50;;;;;;;7.43;1.20;;;;;;;21.34;55.62;100357.00;5077417;28;20031;-72
2023/07/21 05:37:16;;;;;;;7.18;1.20;;;;;;;21.61;56.37;100383.19;5093961;28;20027;-73
2023/07/21 05:39:42;;;;;;;8.65;1.50;;;;;;;21.92;56.46;100378.31;5096006;28;20118;-73
2023/07/21 05:42:07;;;;;;;5.78;1.35;;;;;;;21.76;57.48;100380.34;5102624;28;20035;-73
2023/07/21 05:44:33;;;;;;;5.78;1.30;;;;;;;21.91;56.78;100374.75;5095059;28;20032;-73
2023/07/21 05:47:02;;;;;;;5.65;1.25;;;;;;;21.77;56.58;100373.75;5095585;28;20016;-73
2023/07/21 05:49:28;;;;;;;8.25;1.10;;;;;;;21.80;56.86;100375.94;5089866;28;20055;-73
2023/07/21 05:51:53;;;;;;;4.57;1.20;;;;;;;21.55;57.65;100387.84;5096448;28;20036;-73
2023/07/21 05:54:19;;;;;;;6.38;1.27;;;;;;;21.06;58.49;100380.41;5096566;28;20028;-73
2023/07/21 05:56:44;;;;;;;9.02;1.95;;;;;;;20.99;58.04;100388.06;5084435;28;20056;-73
2023/07/21 05:59:11;;;;;;;7.78;1.67;;;;;;;20.91;57.98;100377.72;5077087;28;20032;-73
2023/07/21 06:01:37;;;;;;;6.95;1.27;;;;;;;20.98;58.05;100379.06;5096708;28;20028;-73
2023/07/21 06:04:04;;;;;;;8.43;1.67;;;;;;;20.97;57.93;100385.63;5119757;28;20032;-73
2023/07/21 06:06:30;;;;;;;8.57;1.58;;;;;;;20.77;58.42;100381.03;5097214;28;20052;-73
2023/07/21 06:08:56;;;;;;;7.75;1.58;;;;;;;20.63;58.77;100377.25;5095415;28;20408;-73
2023/07/21 06:11:23;;;;;;;10.20;2.08;;;;;;;20.69;58.71;100389.78;5093611;28;20070;-72
2023/07/21 06:13:50;;;;;;;7.85;1.48;;;;;;;20.26;58.19;100366.59;5080759;28;20036;-73
2023/07/21 06:16:15;;;;;;;5.13;1.35;;;;;;;20.55;58.53;100388.72;5081157;28;20031;-73
2023/07/21 06:18:42;;;;;;;8.25;1.42;;;;;;;20.81;58.12;100378.56;5057882;28;20025;-73
2023/07/21 06:21:11;;;;;;;8.40;1.60;;;;;;;20.80;57.67;100385.13;5073920;28;20031;-73
2023/07/21 06:23:37;;;;;;;5.40;1.35;;;;;;;20.82;57.02;100391.13;5074746;28;20111;-74
2023/07/21 06:26:02;;;;;;;6.47;1.60;;;;;;;20.70;57.01;100385.16;5074181;28;20119;-73
2023/07/21 06:28:28;;;;;;;8.13;1.40;;;;;;;20.27;57.58;100387.38;5063868;28;20064;-73
2023/07/21 06:30:53;;;;;;;9.65;1.40;;;;;;;20.21;58.02;100385.72;5086261;28;20403;-74
2023/07/21 06:33:19;;;;;;;8.52;1.60;;;;;;;20.53;57.44;100375.34;5087738;28;20411;-75
2023/07/21 06:35:44;;;;;;;5.30;1.25;;;;;;;20.45;57.55;100384.06;5095466;28;20348;-74
2023/07/21 06:38:10;;;;;;;4.15;1.13;;;;;;;20.05;57.65;100365.78;5077850;28;20028;-74
2023/07/21 06:40:35;;;;;;;8.70;1.67;;;;;;;20.24;58.08;100387.91;5068998;28;20025;-73
2023/07/21 06:43:00;;;;;;;8.95;1.48;;;;;;;20.37;57.82;100387.38;5093659;28;20035;-73
2023/07/21 06:45:26;;;;;;;8.38;1.52;;;;;;;20.39;57.97;100390.63;5075700;28;20031;-74
2023/07/21 06:47:51;;;;;;;6.82;1.33;;;;;;;20.15;58.84;100401.28;5072939;28;20056;-75
2023/07/21 06:50:17;;;;;;;9.13;1.58;;;;;;;20.09;58.30;100386.78;5057028;28;20547;-74
2023/07/21 06:52:42;;;;;;;4.30;1.15;;;;;;;20.13;58.24;100401.56;5092662;28;20036;-74
2023/07/21 06:55:08;;;;;;;7.82;1.83;;;;;;;20.02;58.68;100399.91;5079092;28;20413;-74
2023/07/21 06:57:34;;;;;;;7.22;1.23;;;;;;;19.99;57.58;100403.19;5094080;28;20035;-74
2023/07/21 06:59:59;;;;;;;7.80;1.20;;;;;;;19.95;57.56;100378.31;5099655;28;20038;-74
2023/07/21 07:02:24;;;;;;;10.02;1.60;;;;;;;20.37;57.63;100401.84;5094502;28;20386;-73
2023/07/21 07:04:54;;;;;;;4.43;1.10;;;;;;;20.29;57.46;100399.63;5077014;28;20339;-73
2023/07/21 07:07:20;;;;;;;7.28;1.27;;;;;;;19.93;57.49;100363.28;5077617;28;20054;-74
2023/07/21 07:09:46;;;;;;;6.97;1.35;;;;;;;20.17;57.01;100405.38;5081406;28;20119;-74
2023/07/21 07:12:11;;;;;;;4.10;1.30;;;;;;;20.27;56.60;100392.84;5109756;28;20062;-73
2023/07/21 07:14:37;;;;;;;6.53;1.17;;;;;;;20.40;55.99;100409.50;5091353;28;20043;-73
2023/07/21 07:17:02;;;;;;;4.63;1.20;;;;;;;20.33;55.26;100398.03;5057453;28;20055;-73
2023/07/21 07:19:28;;;;;;;7.18;1.10;;;;;;;20.14;55.38;100416.03;5083908;28;20051;-73
2023/07/21 07:21:54;;;;;;;6.38;1.42;;;;;;;20.40;54.79;100397.75;5083075;28;20029;-73
2023/07/21 07:24:20;;;;;;;5.43;1.50;;;;;;;20.54;53.45;100406.22;5074137;28;20372;-73
2023/07/21 07:26:46;;;;;;;3.92;1.23;;;;;;;20.48;53.57;100399.91;5074842;28;20105;-73
2023/07/21 07:29:12;;;;;;;5.72;1.30;;;;;;;20.22;53.70;100406.47;5056076;28;20483;-73
2023/07/21 07:31:37;;;;;;;8.82;1.38;;;;;;;20.45;53.73;100400.47;5065370;28;20039;-73
2023/07/21 07:34:04;;;;;;;4.75;0.98;;;;;;;20.76;53.84;100405.91;5096530;28;20025;-73
2023/07/21 07:36:29;;;;;;;8.25;1.20;;;;;;;20.85;53.72;100409.72;5092138;28;20028;-73
2023/07/21 07:38:54;;;;;;;7.90;1.00;;;;;;;21.04;53.58;100402.56;5075373;28;20459;-73
2023/07/21 07:41:20;;;;;;;8.73;1.38;;;;;;;20.68;53.78;100344.41;5083203;28;20031;-73
2023/07/21 07:43:46;;;;;;;6.03;1.10;;;;;;;20.79;54.12;100405.34;5092628;28;20047;-73
2023/07/21 07:46:11;;;;;;;4.47;1.00;;;;;;;20.80;54.03;100405.09;5096047;28;20105;-72
2023/07/21 07:48:37;;;;;;;4.03;0.95;;;;;;;20.76;53.24;100390.34;5090752;28;20129;-72
2023/07/21 07:51:04;;;;;;;6.82;1.25;;;;;;;21.27;52.58;100408.50;5108211;28;20031;-72
2023/07/21 07:53:34;;;;;;;8.48;1.42;;;;;;;21.15;52.82;100408.00;5092638;28;20112;-73
2023/07/21 07:56:00;;;;;;;4.90;1.20;;;;;;;20.87;53.12;100396.59;5091082;28;20062;-73
2023/07/21 07:58:26;;;;;;;6.90;1.27;;;;;;;21.01;53.36;100419.53;5105367;28;20023;-72
2023/07/21 08:00:56;;;;;;;6.30;1.42;;;;;;;21.07;53.79;100412.13;5072242;28;20078;-73
2023/07/21 08:03:22;;;;;;;6.07;1.23;;;;;;;20.98;53.66;100416.53;5076307;28;20032;-74
2023/07/21 08:05:49;;;;;;;4.40;1.20;;;;;;;20.60;54.35;100400.47;5073622;28;20081;-73
2023/07/21 08:08:15;;;;;;;6.60;1.45;;;;;;;20.60;55.40;100407.88;5084277;28;20067;-74
2023/07/21 08:10:41;;;;;;;9.70;1.42;;;;;;;20.72;55.30;100418.50;5076186;28;20035;-73
2023/07/21 08:13:07;;;;;;;6.15;1.42;;;;;;;20.83;55.48;100422.88;5076258;28;20485;-74
2023/07/21 08:15:33;;;;;;;5.15;1.27;;;;;;;20.77;55.54;100423.97;5091835;28;20036;-73
2023/07/21 08:17:58;;;;;;;3.75;0.90;;;;;;;20.72;55.59;100413.03;5086457;28;20032;-73
2023/07/21 08:20:24;;;;;;;7.20;1.13;;;;;;;20.84;55.57;100433.53;5099756;28;20552;-73
2023/07/21 08:22:52;;;;;;;4.95;1.00;;;;;;;20.73;55.06;100425.59;5082628;28;20114;-74
2023/07/21 08:25:19;;;;;;;9.00;1.20;;;;;;;20.95;54.82;100442.50;5106172;28;20024;-73
2023/07/21 08:27:44;;;;;;;7.78;1.30;;;;;;;21.04;54.48;100437.31;5084378;28;20382;-73
2023/07/21 08:30:10;;;;;;;7.07;1.35;;;;;;;20.76;54.96;100416.84;5082212;28;20044;-73
2023/07/21 08:32:37;;;;;;;6.40;1.52;;;;;;;20.81;55.45;100436.00;5082767;28;20040;-74
2023/07/21 08:35:03;;;;;;;6.28;1.27;;;;;;;20.69;56.01;100438.19;5078540;28;20083;-73
2023/07/21 08:37:30;;;;;;;5.93;1.33;;;;;;;20.41;57.38;100449.38;5072551;28;20035;-73
2023/07/21 08:39:55;;;;;;;4.30;1.10;;;;;;;19.99;59.82;100441.41;5071232;28;20115;-74
2023/07/21 08:42:22;;;;;;;4.63;1.40;;;;;;;19.59;61.21;100437.47;5071544;28;20052;-73
2023/07/21 08:44:48;;;;;;;5.57;1.33;;;;;;;19.31;64.51;100435.19;5070936;28;20032;-74
2023/07/21 08:47:13;;;;;;;6.85;1.30;;;;;;;19.25;65.88;100451.53;5087337;28;20036;-73
2023/07/21 08:49:40;;;;;;;7.25;1.08;;;;;;;19.18;67.71;100444.66;5094376;28;20522;-73
2023/07/21 08:52:06;;;;;;;6.32;1.20;;;;;;;19.24;68.49;100449.88;5090352;28;20056;-73
2023/07/21 08:54:31;;;;;;;7.15;1.42;;;;;;;19.34;69.31;100448.31;5056448;28;20470;-73
2023/07/21 08:56:57;;;;;;;6.32;1.88;;;;;;;19.56;69.25;100448.09;5094252;28;20519;-73
2023/07/21 08:59:22;;;;;;;6.50;1.52;;;;;;;19.65;68.87;100433.69;5069577;28;20549;-74
2023/07/21 09:01:48;;;;;;;6.57;1.15;;;;;;;19.81;68.70;100452.84;5098737;28;20038;-73
2023/07/21 09:04:24;;;;;;;5.55;1.13;;;;;;;19.78;68.20;100450.66;5092440;28;20360;-73
2023/07/21 09:06:57;;;;;;;11.02;1.30;;;;;;;19.66;68.76;100435.31;5073659;28;20047;-73
2023/07/21 09:09:24;;;;;;;5.18;1.10;;;;;;;19.78;69.59;100450.66;5068493;28;20455;-73
2023/07/21 09:11:58;;;;;;;6.60;1.30;;;;;;;19.87;68.95;100447.13;5069839;28;20407;-73
2023/07/21 09:14:44;;;;;;;6.07;0.95;;;;;;;19.62;68.25;100436.94;5071167;28;20028;-73
2023/07/21 09:17:12;;;;;;;8.48;1.13;;;;;;;19.52;69.06;100458.72;5069481;28;20045;-75
2023/07/21 09:19:43;;;;;;;5.78;1.50;;;;;;;19.35;71.75;100455.38;5074990;28;20050;-73
2023/07/21 09:22:09;;;;;;;8.82;1.30;;;;;;;19.33;73.69;100455.63;5085742;28;20502;-73
2023/07/21 09:24:37;;;;;;;8.55;1.30;;;;;;;19.24;74.86;100452.63;5088156;28;20036;-73
2023/07/21 09:27:20;;;;;;;7.55;1.58;;;;;;;19.19;75.72;100438.94;5054462;28;20024;-73
2023/07/21 09:29:46;;;;;;;8.77;1.33;;;;;;;19.33;75.55;100446.63;5088652;28;20035;-72
2023/07/21 09:32:18;;;;;;;7.00;1.30;;;;;;;19.15;77.30;100456.09;5089243;28;20085;-73
2023/07/21 09:34:56;;;;;;;6.90;1.30;;;;;;;19.17;77.26;100446.59;5091063;28;20044;-73
2023/07/21 09:37:24;;;;;;;4.32;1.00;;;;;;;19.12;78.26;100452.00;5092376;28;20070;-73
2023/07/21 09:39:58;;;;;;;5.72;1.15;;;;;;;19.30;78.61;100453.44;5073820;28;20028;-73
2023/07/21 09:42:25;;;;;;;4.87;1.00;;;;;;;19.33;77.96;100460.28;5089125;28;20541;-73
2023/07/21 09:44:52;;;;;;;6.93;1.30;;;;;;;19.40;77.46;100441.75;5087137;28;20157;-73
2023/07/21 09:47:18;;;;;;;6.10;1.08;;;;;;;19.47;76.64;100445.09;5087088;28;20081;-74
2023/07/21 09:49:44;;;;;;;9.23;1.33;;;;;;;19.64;76.16;100451.16;5087603;28;20506;-74
2023/07/21 09:52:13;;;;;;;6.53;1.30;;;;;;;19.90;75.74;100459.41;5088043;28;20024;-73
2023/07/21 09:54:44;;;;;;;7.93;1.17;;;;;;;20.11;74.99;100449.38;5089640;28;20032;-73
2023/07/21 09:57:13;;;;;;;9.23;1.70;;;;;;;20.23;74.01;100416.31;5091145;28;20694;-73
2023/07/21 09:59:42;;;;;;;8.05;1.40;;;;;;;20.59;72.51;100437.09;5091755;28;20039;-73
2023/07/21 10:02:08;;;;;;;10.02;1.60;;;;;;;20.66;71.48;100461.41;5089422;28;20107;-73
2023/07/21 10:04:34;;;;;;;5.20;1.17;;;;;;;20.80;70.20;100468.00;5091024;28;20770;-73
2023/07/21 10:07:05;;;;;;;4.90;1.20;;;;;;;20.56;68.97;100466.91;5107283;28;20034;-74
2023/07/21 10:09:32;;;;;;;11.23;1.40;;;;;;;20.48;67.98;100454.56;5092630;28;20166;-72
2023/07/21 10:12:14;;;;;;;5.55;1.30;;;;;;;20.51;66.87;100475.94;5105812;28;20053;-73
2023/07/21 10:14:40;;;;;;;7.18;1.45;;;;;;;20.15;66.40;100456.75;5092662;28;20189;-72
2023/07/21 10:17:07;;;;;;;6.30;0.98;;;;;;;20.34;66.20;100467.97;5113196;28;20035;-74
2023/07/21 10:19:43;;;;;;;5.38;1.08;;;;;;;20.16;65.71;100479.41;5093325;28;20390;-73
2023/07/21 10:22:11;;;;;;;5.70;1.17;;;;;;;20.13;65.38;100483.53;5094111;28;20093;-73
2023/07/21 10:24:44;;;;;;;5.07;1.30;;;;;;;20.33;64.91;100481.88;5092719;28;20035;-74
2023/07/21 10:27:19;;;;;;;9.48;1.50;;;;;;;20.26;64.10;100473.94;5094368;28;20127;-73
2023/07/21 10:29:44;;;;;;;4.63;1.23;;;;;;;20.24;63.77;100461.69;5092950;28;20049;-73
2023/07/21 10:32:10;;;;;;;7.80;1.30;;;;;;;20.44;63.42;100486.28;5094268;28;20371;-73
2023/07/21 10:34:41;;;;;;;5.20;1.30;;;;;;;20.46;62.66;100486.81;5092615;28;20070;-73
2023/07/21 10:37:07;;;;;;;11.85;1.40;;;;;;;20.44;61.83;100489.03;5094390;28;20107;-73
2023/07/21 10:39:42;;;;;;;8.10;1.42;;;;;;;20.23;60.61;100480.00;5076062;28;20455;-73
2023/07/21 10:42:09;;;;;;;5.07;1.00;;;;;;;20.45;60.32;100484.38;5093806;28;20404;-73
2023/07/21 10:44:39;;;;;;;4.78;1.10;;;;;;;20.67;59.45;100487.69;5075883;28;20054;-73
2023/07/21 10:47:16;;;;;;;2.85;1.00;;;;;;;20.79;58.22;100476.44;5093651;28;20085;-71
2023/07/21 10:49:44;;;;;;;4.07;1.10;;;;;;;20.77;57.32;100478.66;5093833;28;20032;-72
2023/07/21 10:52:10;;;;;;;6.03;1.05;;;;;;;20.85;56.24;100470.69;5094467;28;20036;-72
2023/07/21 10:54:36;;;;;;;3.95;1.02;;;;;;;20.73;56.52;100472.06;5094599;28;20601;-72
2023/07/21 10:57:02;;;;;;;5.65;1.25;;;;;;;20.80;56.63;100489.06;5095967;28;20038;-72
2023/07/21 10:59:31;;;;;;;4.75;0.90;;;;;;;20.82;55.54;100481.38;5094250;28;20023;-72
2023/07/21 11:01:57;;;;;;;6.90;1.10;;;;;;;20.79;55.91;100481.91;5093556;28;20020;-72
2023/07/21 11:04:23;;;;;;;4.15;0.90;;;;;;;21.01;54.84;100490.66;5109305;28;20050;-71
2023/07/21 11:06:53;;;;;;;2.70;0.80;;;;;;;21.15;54.08;100485.41;5092376;28;20020;-71
2023/07/21 11:09:21;;;;;;;5.95;0.90;;;;;;;21.35;53.69;100490.03;5092578;28;20020;-72
2023/07/21 11:11:50;;;;;;;4.70;0.95;;;;;;;21.27;53.56;100483.19;5093716;28;20088;-72
2023/07/21 11:14:18;;;;;;;5.00;0.95;;;;;;;21.22;53.07;100474.19;5093598;28;20482;-71
2023/07/21 11:16:48;;;;;;;4.70;0.90;;;;;;;21.19;53.33;100477.47;5084716;28;20037;-71
2023/07/21 11:19:15;;;;;;;5.45;1.00;;;;;;;21.14;53.67;100463.81;5073884;28;20033;-72
2023/07/21 11:21:41;;;;;;;5.35;1.13;;;;;;;20.98;53.47;100466.56;5090750;28;20043;-72